Time;durP1;ratioP1;P1;durP2;ratioP2;P2;SDS_P1;SDS_P2;PMS_P1;PMS_P2;Temp;Humidity;BMP_temperature;BMP_pressure;BME280_temperature;BME280_humidity;BME280_pressure;Samples;Min_cycle;Max_cycle;Signal;HPM_P1;HPM_P2
2022/05/31 00:01:37;;;;;;;2.42;1.50;;;6.60;99.90;;;;;;5056299;28;20070;-83
2022/05/31 00:04:03;;;;;;;2.90;1.88;;;6.60;99.90;;;;;;5055976;28;20074;-83
2022/05/31 00:06:29;;;;;;;4.72;2.13;;;6.60;99.90;;;;;;5054581;28;20505;-83
2022/05/31 00:08:54;;;;;;;3.53;1.58;;;6.60;99.90;;;;;;5054639;28;20029;-83
2022/05/31 00:11:21;;;;;;;3.17;1.55;;;6.60;99.90;;;;;;5054613;28;20021;-83
2022/05/31 00:13:47;;;;;;;2.05;1.30;;;6.50;99.90;;;;;;5055820;28;20388;-83
2022/05/31 00:16:13;;;;;;;2.03;1.40;;;6.40;99.90;;;;;;5054487;28;20028;-83
2022/05/31 00:18:39;;;;;;;2.65;1.55;;;6.40;99.90;;;;;;5056036;28;20112;-83
2022/05/31 00:21:05;;;;;;;2.28;1.40;;;6.40;99.90;;;;;;5055686;28;20024;-83
2022/05/31 00:23:32;;;;;;;2.35;1.40;;;6.40;99.90;;;;;;5053395;28;20074;-83
2022/05/31 00:25:58;;;;;;;2.08;1.27;;;6.30;99.90;;;;;;5054104;28;20029;-83
2022/05/31 00:28:24;;;;;;;3.78;1.45;;;6.30;99.90;;;;;;5054319;28;20028;-83
2022/05/31 00:30:50;;;;;;;2.03;1.25;;;6.30;99.90;;;;;;5054224;28;20025;-83
2022/05/31 00:33:16;;;;;;;2.33;1.23;;;6.20;99.90;;;;;;5054616;28;20369;-83
2022/05/31 00:35:46;;;;;;;2.55;1.30;;;6.20;99.90;;;;;;5054036;28;20029;-83
2022/05/31 00:38:13;;;;;;;2.25;1.25;;;6.20;99.90;;;;;;5055410;28;20032;-83
2022/05/31 00:40:39;;;;;;;3.63;1.27;;;6.20;99.90;;;;;;5054248;28;20473;-83
2022/05/31 00:43:08;;;;;;;2.15;1.00;;;6.20;99.90;;;;;;5056176;28;20029;-83
2022/05/31 00:45:57;;;;;;;2.10;1.25;;;6.20;99.90;;;;;;5055112;28;20104;-83
2022/05/31 00:48:37;;;;;;;1.50;1.00;;;6.30;99.90;;;;;;5053967;28;20100;-83
2022/05/31 00:51:14;;;;;;;1.50;1.10;;;6.30;99.90;;;;;;5055236;28;20072;-83
2022/05/31 00:53:48;;;;;;;1.85;1.13;;;6.20;99.90;;;;;;5055113;28;20029;-83
2022/05/31 00:56:19;;;;;;;1.38;1.00;;;6.30;99.90;;;;;;5055090;28;20021;-83
2022/05/31 00:59:09;;;;;;;1.58;1.00;;;6.20;99.90;;;;;;5053757;28;20024;-83
2022/05/31 01:01:38;;;;;;;1.75;1.13;;;6.20;99.90;;;;;;5047525;28;20040;-83
2022/05/31 01:04:05;;;;;;;2.88;1.17;;;6.10;99.90;;;;;;5055742;28;20096;-83
2022/05/31 01:06:32;;;;;;;2.53;1.40;;;5.90;99.90;;;;;;5054717;28;20029;-83
2022/05/31 01:09:00;;;;;;;2.50;1.20;;;5.80;99.90;;;;;;5054516;28;20021;-83
2022/05/31 01:11:29;;;;;;;2.72;1.38;;;5.70;99.90;;;;;;5054250;28;20024;-83
2022/05/31 01:13:55;;;;;;;2.72;1.20;;;5.70;99.90;;;;;;5054151;28;20092;-83
2022/05/31 01:16:22;;;;;;;5.28;1.20;;;5.70;99.90;;;;;;5050267;28;20028;-83
2022/05/31 01:18:48;;;;;;;2.33;1.20;;;5.70;99.90;;;;;;5034467;28;20025;-83
2022/05/31 01:21:14;;;;;;;2.05;1.38;;;5.70;99.90;;;;;;5039872;28;20384;-83
2022/05/31 01:23:47;;;;;;;1.52;1.17;;;5.70;99.90;;;;;;5054528;28;20037;-83
2022/05/31 01:26:27;;;;;;;2.05;1.45;;;5.70;99.90;;;;;;5053097;28;20040;-83
2022/05/31 01:29:03;;;;;;;3.05;1.25;;;5.70;99.90;;;;;;5053154;28;20056;-83
2022/05/31 01:31:41;;;;;;;2.13;1.33;;;5.70;99.90;;;;;;5054636;28;20017;-83
2022/05/31 01:34:14;;;;;;;1.75;1.10;;;5.70;99.90;;;;;;5052801;28;20027;-83
2022/05/31 01:36:49;;;;;;;2.10;1.20;;;5.70;99.90;;;;;;5052974;28;20059;-83
2022/05/31 01:39:42;;;;;;;3.17;1.50;;;5.70;99.90;;;;;;5054396;28;20112;-83
2022/05/31 01:42:23;;;;;;;2.38;1.65;;;5.70;99.90;;;;;;5053106;28;20083;-83
2022/05/31 01:44:54;;;;;;;2.30;1.50;;;5.70;99.90;;;;;;5053129;28;20029;-83
2022/05/31 01:47:21;;;;;;;2.67;1.83;;;5.70;99.90;;;;;;5054477;28;20037;-83
2022/05/31 01:49:50;;;;;;;2.42;1.50;;;5.70;99.90;;;;;;5054496;28;20107;-83
2022/05/31 01:52:16;;;;;;;3.33;1.85;;;5.80;99.90;;;;;;5054197;28;20025;-83
2022/05/31 01:54:43;;;;;;;2.25;1.42;;;5.80;99.90;;;;;;5052639;28;20055;-83
2022/05/31 01:57:12;;;;;;;1.98;1.35;;;5.80;99.90;;;;;;5053945;28;20024;-83
2022/05/31 01:59:48;;;;;;;2.00;1.40;;;5.70;99.90;;;;;;5054507;28;20029;-83
2022/05/31 02:02:16;;;;;;;2.45;1.45;;;5.70;99.90;;;;;;5053484;28;20551;-84
2022/05/31 02:04:43;;;;;;;2.55;1.60;;;5.70;99.90;;;;;;5052614;28;20095;-84
2022/05/31 02:07:23;;;;;;;2.47;1.38;;;5.70;99.90;;;;;;5052322;28;20025;-83
2022/05/31 02:09:51;;;;;;;1.80;1.20;;;5.70;99.90;;;;;;5052439;28;20025;-83
2022/05/31 02:12:19;;;;;;;3.17;1.33;;;5.70;99.90;;;;;;5053646;28;20053;-83
2022/05/31 02:14:45;;;;;;;2.55;1.27;;;5.60;99.90;;;;;;5052254;28;20033;-83
2022/05/31 02:17:11;;;;;;;2.58;1.27;;;5.60;99.90;;;;;;5053825;28;20029;-83
2022/05/31 02:19:37;;;;;;;1.38;1.00;;;5.60;99.90;;;;;;5052463;28;20025;-83
2022/05/31 02:22:06;;;;;;;2.10;1.00;;;5.60;99.90;;;;;;5053890;28;20150;-83
2022/05/31 02:24:32;;;;;;;2.25;1.30;;;5.50;99.90;;;;;;5053410;28;20021;-83
2022/05/31 02:26:58;;;;;;;1.90;1.30;;;5.50;99.90;;;;;;5053395;28;20037;-83
2022/05/31 02:29:27;;;;;;;2.22;1.25;;;5.50;99.90;;;;;;5053649;28;20106;-83
2022/05/31 02:31:55;;;;;;;1.70;1.20;;;5.60;99.90;;;;;;5053636;28;20031;-83
2022/05/31 02:34:24;;;;;;;1.67;1.17;;;5.50;99.90;;;;;;5053378;28;20029;-83
2022/05/31 02:36:50;;;;;;;1.40;1.00;;;5.50;99.90;;;;;;5052096;28;20484;-83
2022/05/31 02:39:16;;;;;;;2.25;1.17;;;5.50;99.90;;;;;;5052250;28;20029;-83
2022/05/31 02:41:43;;;;;;;3.35;1.30;;;5.40;99.90;;;;;;5054035;28;20025;-83
2022/05/31 02:44:09;;;;;;;2.03;1.20;;;5.40;99.90;;;;;;5054869;28;20024;-83
2022/05/31 02:46:36;;;;;;;1.95;1.13;;;5.40;99.90;;;;;;5056424;28;20448;-83
2022/05/31 02:49:04;;;;;;;2.05;1.10;;;5.40;99.90;;;;;;5056047;28;20025;-83
2022/05/31 02:51:34;;;;;;;2.95;1.23;;;5.40;99.90;;;;;;5056150;28;20028;-83
2022/05/31 02:54:00;;;;;;;2.47;1.40;;;5.40;99.90;;;;;;5055988;28;20072;-83
2022/05/31 02:56:26;;;;;;;2.05;1.40;;;5.40;99.90;;;;;;5057861;28;20401;-83
2022/05/31 02:58:51;;;;;;;1.95;1.25;;;5.50;99.90;;;;;;5057286;28;20075;-83
2022/05/31 03:01:23;;;;;;;3.00;1.40;;;5.50;99.90;;;;;;5056002;28;20531;-83
2022/05/31 03:03:49;;;;;;;2.08;1.38;;;5.50;99.90;;;;;;5057649;28;20354;-83
2022/05/31 03:06:15;;;;;;;2.17;1.38;;;5.50;99.90;;;;;;5055782;28;20025;-82
2022/05/31 03:08:41;;;;;;;3.38;1.50;;;5.50;99.90;;;;;;5055813;28;20179;-82
2022/05/31 03:11:12;;;;;;;2.20;1.30;;;5.50;99.90;;;;;;5057158;28;20338;-82
2022/05/31 03:13:38;;;;;;;2.45;1.50;;;5.50;99.90;;;;;;5057117;28;20044;-82
2022/05/31 03:16:04;;;;;;;2.33;1.30;;;5.50;99.90;;;;;;5056867;28;20078;-82
2022/05/31 03:18:42;;;;;;;2.25;1.10;;;5.50;99.90;;;;;;5056903;28;20558;-82
2022/05/31 03:21:23;;;;;;;1.90;1.10;;;5.60;99.90;;;;;;5057106;28;20029;-82
2022/05/31 03:24:01;;;;;;;2.25;1.35;;;5.50;99.90;;;;;;5055480;28;20025;-82
2022/05/31 03:26:31;;;;;;;2.95;1.38;;;5.40;99.90;;;;;;5055595;28;20033;-82
2022/05/31 03:28:57;;;;;;;1.67;1.00;;;5.40;99.90;;;;;;5055386;28;20025;-82
2022/05/31 03:31:23;;;;;;;2.20;1.17;;;5.40;99.90;;;;;;5056636;28;20029;-82
2022/05/31 03:33:49;;;;;;;4.07;1.35;;;5.40;99.90;;;;;;5056552;28;20377;-82
2022/05/31 03:36:15;;;;;;;1.77;1.20;;;5.40;99.90;;;;;;5056590;28;20028;-83
2022/05/31 03:38:41;;;;;;;2.00;1.30;;;5.40;99.90;;;;;;5056901;28;20020;-82
2022/05/31 03:41:06;;;;;;;3.00;1.17;;;5.40;99.90;;;;;;5056955;28;20044;-83
2022/05/31 03:44:37;;;;;;;1.95;1.17;;;5.40;99.90;;;;;;5055966;28;20040;-82
2022/05/31 03:47:05;;;;;;;;;;;5.40;99.90;;;;;;5002555;28;20038;-83
2022/05/31 03:49:32;;;;;;;1.92;1.33;;;5.50;99.90;;;;;;5006118;28;20319;-82
2022/05/31 03:51:58;;;;;;;2.22;1.40;;;5.40;99.90;;;;;;5055473;28;20032;-82
2022/05/31 03:54:24;;;;;;;1.77;1.30;;;5.40;99.90;;;;;;5054829;28;20109;-82
2022/05/31 03:56:49;;;;;;;3.25;1.45;;;5.40;99.90;;;;;;5055541;28;20099;-83
2022/05/31 03:59:15;;;;;;;3.00;1.60;;;5.40;99.90;;;;;;5056200;28;20470;-82
2022/05/31 04:01:41;;;;;;;3.40;1.50;;;5.40;99.90;;;;;;5056285;28;20381;-82
2022/05/31 04:04:06;;;;;;;2.15;1.45;;;5.30;99.90;;;;;;5054839;28;20055;-83
2022/05/31 04:06:35;;;;;;;1.80;1.20;;;5.30;99.90;;;;;;5056451;28;20056;-83
2022/05/31 04:09:01;;;;;;;1.77;1.20;;;5.30;99.90;;;;;;5056312;28;20017;-81
2022/05/31 04:11:27;;;;;;;2.47;1.35;;;5.30;99.90;;;;;;5056359;28;20025;-81
2022/05/31 04:13:54;;;;;;;1.67;1.10;;;5.30;99.90;;;;;;5056080;28;20032;-81
2022/05/31 04:16:20;;;;;;;2.67;1.67;;;5.40;99.90;;;;;;5054727;28;20386;-81
2022/05/31 04:18:46;;;;;;;2.58;1.40;;;5.40;99.90;;;;;;5056269;28;20037;-81
2022/05/31 04:21:16;;;;;;;2.10;1.27;;;5.50;99.90;;;;;;5055907;28;20029;-81
2022/05/31 04:23:58;;;;;;;2.17;1.40;;;5.50;99.90;;;;;;5054350;28;20025;-81
2022/05/31 04:26:32;;;;;;;2.67;1.40;;;5.60;99.90;;;;;;5054622;28;20036;-81
2022/05/31 04:28:58;;;;;;;2.53;1.55;;;5.60;99.90;;;;;;5070998;28;20099;-81
2022/05/31 04:31:24;;;;;;;3.28;1.50;;;5.50;99.90;;;;;;5054258;28;20044;-81
2022/05/31 04:33:50;;;;;;;2.72;1.70;;;5.50;99.90;;;;;;5055741;28;20196;-81
2022/05/31 04:36:18;;;;;;;3.00;1.70;;;5.60;99.90;;;;;;5055517;28;20523;-81
2022/05/31 04:38:44;;;;;;;2.40;1.50;;;5.60;99.90;;;;;;5054442;28;20087;-81
2022/05/31 04:41:22;;;;;;;2.65;1.45;;;5.60;99.90;;;;;;5055421;28;20055;-81
2022/05/31 04:43:48;;;;;;;3.03;1.70;;;5.60;99.90;;;;;;5055250;28;20029;-81
2022/05/31 04:46:16;;;;;;;1.90;1.38;;;5.70;99.90;;;;;;5055754;28;20416;-81
2022/05/31 04:48:42;;;;;;;2.15;1.45;;;5.70;99.90;;;;;;5054202;28;20385;-81
2022/05/31 04:51:08;;;;;;;2.72;1.63;;;5.70;99.90;;;;;;5055156;28;20030;-81
2022/05/31 04:53:34;;;;;;;5.07;1.90;;;5.70;99.90;;;;;;5054995;28;20471;-81
2022/05/31 04:56:02;;;;;;;3.65;2.05;;;5.80;99.90;;;;;;5055102;28;20021;-81
2022/05/31 04:58:28;;;;;;;3.35;1.67;;;5.80;99.90;;;;;;5053668;28;20033;-81
2022/05/31 05:00:53;;;;;;;2.70;1.65;;;5.90;99.90;;;;;;5055067;28;20028;-81
2022/05/31 05:03:19;;;;;;;2.72;1.60;;;6.00;99.90;;;;;;5054928;28;20056;-81
2022/05/31 05:05:45;;;;;;;3.05;1.67;;;6.00;99.90;;;;;;5055189;28;20036;-81
2022/05/31 05:08:11;;;;;;;2.78;1.50;;;6.10;99.90;;;;;;5054972;28;20017;-81
2022/05/31 05:10:37;;;;;;;3.88;1.70;;;6.20;99.90;;;;;;5055377;28;20087;-81
2022/05/31 05:13:03;;;;;;;5.15;2.30;;;6.20;99.90;;;;;;5054947;28;20462;-81
2022/05/31 05:15:29;;;;;;;2.60;1.83;;;6.30;99.90;;;;;;5054649;28;20021;-81
2022/05/31 05:17:55;;;;;;;5.03;1.90;;;6.40;99.90;;;;;;5054668;28;20072;-81
2022/05/31 05:20:22;;;;;;;3.75;2.30;;;6.40;99.90;;;;;;5054900;28;20086;-81
2022/05/31 05:22:48;;;;;;;8.10;2.33;;;6.50;99.90;;;;;;5053150;28;20032;-81
2022/05/31 05:25:13;;;;;;;2.95;2.10;;;6.60;99.90;;;;;;5054216;28;20083;-81
2022/05/31 05:27:39;;;;;;;3.30;2.30;;;6.70;99.90;;;;;;5054909;28;20401;-81
2022/05/31 05:32:49;;;;;;;3.90;2.78;;;6.80;99.90;;;;;;5054325;28;20075;-81
2022/05/31 05:35:15;;;;;;;4.50;2.50;;;6.80;99.90;;;;;;5053084;28;20021;-81
2022/05/31 05:37:40;;;;;;;3.90;2.78;;;6.90;99.90;;;;;;5054511;28;20070;-81
2022/05/31 05:40:07;;;;;;;4.63;2.80;;;7.00;99.90;;;;;;5054210;28;20059;-81
2022/05/31 05:42:32;;;;;;;5.15;2.80;;;7.10;99.90;;;;;;5054339;28;20072;-81
2022/05/31 05:45:00;;;;;;;3.80;2.80;;;7.20;99.90;;;;;;5052905;28;20514;-81
2022/05/31 05:47:26;;;;;;;4.00;2.38;;;7.30;99.90;;;;;;5053105;28;20481;-81
2022/05/31 05:49:52;;;;;;;4.10;2.15;;;7.30;99.90;;;;;;5054012;28;20025;-81
2022/05/31 05:52:18;;;;;;;3.95;2.22;;;7.40;99.90;;;;;;5053109;28;20079;-81
2022/05/31 05:54:45;;;;;;;4.32;1.85;;;7.60;99.90;;;;;;5052968;28;20032;-81
2022/05/31 05:57:11;;;;;;;2.50;1.80;;;7.70;99.90;;;;;;5052757;28;20489;-81
2022/05/31 05:59:36;;;;;;;3.78;1.67;;;7.90;99.90;;;;;;5055213;28;20057;-81
2022/05/31 06:02:14;;;;;;;2.40;1.63;;;7.90;99.90;;;;;;5054054;28;20086;-81
2022/05/31 06:05:14;;;;;;;6.05;1.85;;;8.00;99.90;;;;;;5052691;28;20037;-81
2022/05/31 06:07:50;;;;;;;3.25;1.63;;;8.10;99.90;;;;;;5051911;28;20131;-81
2022/05/31 06:10:23;;;;;;;3.13;1.83;;;8.20;99.90;;;;;;5052213;28;20033;-81
2022/05/31 06:12:57;;;;;;;3.53;1.70;;;8.30;99.90;;;;;;5054031;28;20087;-81
2022/05/31 06:15:30;;;;;;;2.80;1.60;;;8.40;99.90;;;;;;5052837;28;20098;-81
2022/05/31 06:18:00;;;;;;;3.95;1.95;;;8.50;99.90;;;;;;5053434;28;20092;-81
2022/05/31 06:20:27;;;;;;;2.83;1.92;;;8.60;99.90;;;;;;5052210;28;20029;-81
2022/05/31 06:22:55;;;;;;;2.22;1.60;;;8.70;99.90;;;;;;5054103;28;20029;-81
2022/05/31 06:25:21;;;;;;;3.38;1.60;;;8.80;99.90;;;;;;5053348;28;20071;-81
2022/05/31 06:27:47;;;;;;;1.88;1.38;;;8.80;99.90;;;;;;5052411;28;20025;-81
2022/05/31 06:30:13;;;;;;;4.95;1.45;;;8.90;99.90;;;;;;5052378;28;20044;-81
2022/05/31 06:32:39;;;;;;;1.83;1.40;;;9.00;99.90;;;;;;5053464;28;20436;-81
2022/05/31 06:35:06;;;;;;;3.08;1.50;;;9.10;99.90;;;;;;5052157;28;20021;-81
2022/05/31 06:37:31;;;;;;;2.88;1.50;;;9.30;99.90;;;;;;5052123;28;20082;-81
2022/05/31 06:39:57;;;;;;;2.83;1.67;;;9.40;99.90;;;;;;5053320;28;20029;-81
2022/05/31 06:42:23;;;;;;;2.05;1.30;;;9.50;99.90;;;;;;5052442;28;20112;-81
2022/05/31 06:44:49;;;;;;;2.05;1.30;;;9.70;99.90;;;;;;5053632;28;20036;-81
2022/05/31 06:47:31;;;;;;;2.30;1.40;;;9.80;99.90;;;;;;5053602;28;20030;-82
2022/05/31 06:49:57;;;;;;;2.63;1.45;;;9.90;99.90;;;;;;5051143;28;20040;-82
2022/05/31 06:57:56;;;;;;;2.85;1.33;;;10.40;99.90;;;;;;5053581;28;20032;-81
2022/05/31 07:00:23;;;;;;;3.08;1.45;;;10.50;99.90;;;;;;5052089;28;20389;-82
2022/05/31 07:02:49;;;;;;;1.88;1.40;;;10.60;99.90;;;;;;5051950;28;20432;-82
2022/05/31 07:05:16;;;;;;;2.20;1.40;;;10.80;99.90;;;;;;5053116;28;20025;-82
2022/05/31 07:07:42;;;;;;;2.42;1.45;;;10.90;99.90;;;;;;5053153;28;20021;-82
2022/05/31 07:10:09;;;;;;;1.65;1.13;;;11.00;99.90;;;;;;5053132;28;20021;-82
2022/05/31 07:12:35;;;;;;;2.00;1.17;;;11.20;99.90;;;;;;5053029;28;20200;-82
2022/05/31 07:15:01;;;;;;;2.03;1.10;;;11.40;99.90;;;;;;5051824;28;20560;-82
2022/05/31 07:17:27;;;;;;;1.85;0.80;;;11.50;99.90;;;;;;5051834;28;20025;-82
2022/05/31 07:19:53;;;;;;;2.00;1.15;;;11.80;99.90;;;;;;5051846;28;20394;-82
2022/05/31 07:22:42;;;;;;;3.20;1.25;;;12.00;99.90;;;;;;5051869;28;20070;-82
2022/05/31 07:25:08;;;;;;;2.45;1.13;;;12.30;99.90;;;;;;5052652;28;20029;-82
2022/05/31 07:27:35;;;;;;;1.92;1.10;;;12.20;99.90;;;;;;5052859;28;20075;-82
2022/05/31 07:30:01;;;;;;;2.58;1.00;;;12.20;99.90;;;;;;5051827;28;20405;-82
2022/05/31 07:32:27;;;;;;;2.42;1.13;;;12.40;99.90;;;;;;5054305;28;20021;-82
2022/05/31 07:35:13;;;;;;;4.32;1.17;;;12.50;99.90;;;;;;5055725;28;20028;-82
2022/05/31 07:37:43;;;;;;;2.22;1.02;;;12.70;99.90;;;;;;5054385;28;20432;-82
2022/05/31 07:40:10;;;;;;;2.83;1.03;;;12.80;99.90;;;;;;5055811;28;20070;-82
2022/05/31 07:42:38;;;;;;;2.50;1.10;;;13.00;99.90;;;;;;5055505;28;20375;-82
2022/05/31 07:45:05;;;;;;;1.50;0.82;;;13.20;99.90;;;;;;5055664;28;20021;-82
2022/05/31 07:47:31;;;;;;;3.00;1.17;;;13.30;99.90;;;;;;5057035;28;20040;-82
2022/05/31 07:49:57;;;;;;;1.40;0.80;;;13.40;99.90;;;;;;5056573;28;20021;-82
2022/05/31 07:52:24;;;;;;;2.53;1.13;;;13.50;99.90;;;;;;5056826;28;20477;-82
2022/05/31 07:54:50;;;;;;;2.00;0.88;;;13.60;99.90;;;;;;5056774;28;20110;-82
2022/05/31 08:00:01;;;;;;;2.67;0.90;;;13.70;99.90;;;;;;5056610;28;20114;-83
2022/05/31 08:02:26;;;;;;;1.70;0.80;;;13.80;99.90;;;;;;5056355;28;20025;-82
2022/05/31 08:04:52;;;;;;;1.45;0.68;;;13.90;99.90;;;;;;5056234;28;20036;-82
2022/05/31 08:07:18;;;;;;;1.58;0.77;;;14.10;99.90;;;;;;5056050;28;20116;-82
2022/05/31 08:09:44;;;;;;;2.10;1.00;;;14.20;99.90;;;;;;5056360;28;20024;-82
2022/05/31 08:12:11;;;;;;;1.80;1.00;;;14.40;99.90;;;;;;5054797;28;20017;-82
2022/05/31 08:14:36;;;;;;;3.40;1.20;;;14.50;99.90;;;;;;5054553;28;20474;-82
2022/05/31 08:17:03;;;;;;;1.40;0.80;;;14.60;99.50;;;;;;5056420;28;20059;-82
2022/05/31 08:19:30;;;;;;;1.77;0.93;;;14.80;99.90;;;;;;5055881;28;20025;-82
2022/05/31 08:21:56;;;;;;;1.45;0.80;;;15.00;99.90;;;;;;5054505;28;20029;-82
2022/05/31 08:24:22;;;;;;;3.00;0.90;;;15.20;99.70;;;;;;5054467;28;20029;-83
2022/05/31 08:26:48;;;;;;;1.73;0.88;;;15.40;99.50;;;;;;5054225;28;20037;-83
2022/05/31 08:29:14;;;;;;;1.42;0.82;;;15.70;98.00;;;;;;5055576;28;20023;-83
2022/05/31 08:31:40;;;;;;;2.22;0.70;;;15.80;96.80;;;;;;5055422;28;20024;-82
2022/05/31 08:34:07;;;;;;;1.60;0.90;;;16.00;97.40;;;;;;5055551;28;20032;-82
2022/05/31 08:36:33;;;;;;;1.60;0.80;;;16.00;96.80;;;;;;5055590;28;20131;-82
2022/05/31 08:39:00;;;;;;;2.95;1.05;;;16.10;95.90;;;;;;5055435;28;20393;-82
2022/05/31 08:41:32;;;;;;;6.03;0.80;;;16.10;96.70;;;;;;5053894;28;20029;-82
2022/05/31 08:44:06;;;;;;;5.05;1.08;;;16.20;95.70;;;;;;5052976;28;20021;-82
2022/05/31 08:46:50;;;;;;;9.95;1.80;;;16.30;95.30;;;;;;5054421;28;20029;-82
2022/05/31 08:49:19;;;;;;;1.50;0.90;;;16.40;95.90;;;;;;5054350;28;20017;-82
2022/05/31 08:51:58;;;;;;;4.60;1.30;;;16.60;94.30;;;;;;5053951;28;20021;-82
2022/05/31 08:57:40;;;;;;;1.85;0.85;;;17.00;92.50;;;;;;5055289;28;20036;-82
2022/05/31 09:00:12;;;;;;;2.25;0.80;;;17.20;93.20;;;;;;5055390;28;20025;-83
2022/05/31 09:02:37;;;;;;;;;;;17.30;92.20;;;;;;5055898;28;20017;-83
2022/05/31 09:05:12;;;;;;;4.95;0.82;;;17.30;90.50;;;;;;5053668;28;20265;-82
2022/05/31 09:07:46;;;;;;;3.15;0.90;;;17.40;92.40;;;;;;5053740;28;20397;-82
2022/05/31 09:10:16;;;;;;;2.30;0.70;;;17.50;90.90;;;;;;5054186;28;20029;-82
2022/05/31 09:13:06;;;;;;;2.75;0.80;;;17.50;90.40;;;;;;5054959;28;20432;-83
2022/05/31 09:15:34;;;;;;;1.92;0.82;;;17.60;92.20;;;;;;5053512;28;20104;-82
2022/05/31 09:18:32;;;;;;;2.88;0.80;;;17.70;93.20;;;;;;5054678;28;20102;-82
2022/05/31 09:21:06;;;;;;;1.55;0.70;;;17.90;93.60;;;;;;5054678;28;20096;-82
2022/05/31 09:23:37;;;;;;;2.38;1.00;;;18.10;93.80;;;;;;5053374;28;20021;-82
2022/05/31 09:26:15;;;;;;;1.23;0.65;;;18.20;92.10;;;;;;5053072;28;20052;-82
2022/05/31 09:28:52;;;;;;;0.90;0.68;;;18.30;92.20;;;;;;5054461;28;20424;-82
2022/05/31 09:31:27;;;;;;;1.95;0.73;;;18.30;91.80;;;;;;5054811;28;20070;-82
2022/05/31 09:34:36;;;;;;;2.22;0.80;;;18.40;91.10;;;;;;5054432;28;20497;-82
2022/05/31 09:37:32;;;;;;;2.72;1.10;;;18.60;91.60;;;;;;5045128;28;20044;-82
2022/05/31 09:40:23;;;;;;;4.65;0.80;;;18.70;91.20;;;;;;5053257;28;20055;-82
2022/05/31 09:42:55;;;;;;;1.95;0.82;;;18.90;91.50;;;;;;5054125;28;20146;-82
2022/05/31 09:45:21;;;;;;;2.10;0.93;;;18.90;87.20;;;;;;5054190;28;20032;-82
2022/05/31 09:47:50;;;;;;;1.20;0.68;;;19.00;87.20;;;;;;5054283;28;20056;-82
2022/05/31 09:50:25;;;;;;;2.13;0.80;;;19.00;87.40;;;;;;5054468;28;20531;-82
2022/05/31 09:52:56;;;;;;;1.60;0.90;;;19.10;87.10;;;;;;5054433;28;20024;-82
2022/05/31 09:58:38;;;;;;;2.10;0.70;;;19.30;87.70;;;;;;5054327;28;20401;-82
2022/05/31 10:01:29;;;;;;;2.47;0.80;;;19.40;88.00;;;;;;5053389;28;20054;-82
2022/05/31 10:04:05;;;;;;;1.77;0.85;;;19.60;85.40;;;;;;5053410;28;20051;-82
2022/05/31 10:06:31;;;;;;;1.17;0.60;;;19.70;85.90;;;;;;5054704;28;20104;-82
2022/05/31 10:09:14;;;;;;;1.80;0.70;;;19.90;85.60;;;;;;5054519;28;20017;-82
2022/05/31 10:11:46;;;;;;;3.67;0.85;;;20.00;85.00;;;;;;5053763;28;20021;-82
2022/05/31 10:14:33;;;;;;;2.58;0.80;;;20.20;88.60;;;;;;5053611;28;20021;-82
2022/05/31 10:17:39;;;;;;;1.83;0.95;;;20.40;87.00;;;;;;5052460;28;20025;-82
2022/05/31 10:20:16;;;;;;;1.95;0.60;;;20.60;83.40;;;;;;5048313;28;20041;-82
2022/05/31 10:23:06;;;;;;;0.80;0.50;;;20.60;80.50;;;;;;5053839;28;20025;-82
2022/05/31 10:25:32;;;;;;;0.90;0.60;;;20.70;82.40;;;;;;5048492;28;20082;-82
2022/05/31 10:28:00;;;;;;;1.50;0.60;;;20.70;79.40;;;;;;5053913;28;20029;-82
2022/05/31 10:30:27;;;;;;;1.00;0.60;;;20.80;76.50;;;;;;5053553;28;20025;-82
2022/05/31 10:32:55;;;;;;;;;;;20.80;75.30;;;;;;5052514;28;20021;-82
2022/05/31 10:35:24;;;;;;;;;;;20.80;73.30;;;;;;5052613;28;19959;-82
2022/05/31 10:38:23;;;;;;;;;;;20.90;71.60;;;;;;5054095;28;20003;-82
2022/05/31 10:41:02;;;;;;;;;;;21.00;73.70;;;;;;5054016;28;19908;-82
2022/05/31 10:43:39;;;;;;;;;;;21.20;68.50;;;;;;5053590;28;19911;-82
2022/05/31 10:46:08;;;;;;;;;;;21.20;66.50;;;;;;5053704;28;19909;-82
2022/05/31 10:48:37;;;;;;;;;;;21.30;65.40;;;;;;5052427;28;19905;-82
2022/05/31 10:51:21;;;;;;;;;;;21.50;65.00;;;;;;5053597;28;20320;-82
2022/05/31 10:53:47;;;;;;;;;;;21.50;57.70;;;;;;5053563;28;19905;-82
2022/05/31 10:56:15;;;;;;;;;;;21.60;59.80;;;;;;5053571;28;19912;-81
2022/05/31 10:58:41;;;;;;;;;;;21.70;60.30;;;;;;5053632;28;20367;-82
2022/05/31 11:01:15;;;;;;;;;;;21.90;61.50;;;;;;5053698;28;19909;-82
2022/05/31 11:03:50;;;;;;;;;;;22.00;58.20;;;;;;5053507;28;19988;-82
2022/05/31 11:06:18;;;;;;;;;;;22.00;57.30;;;;;;5054697;28;20411;-82
2022/05/31 11:11:51;;;;;;;;;;;22.10;58.80;;;;;;5057877;28;19912;-81
2022/05/31 11:14:31;;;;;;;;;;;22.20;56.50;;;;;;5057804;28;20432;-81
2022/05/31 11:17:16;;;;;;;;;;;22.30;56.50;;;;;;5057471;28;19951;-81
2022/05/31 11:19:44;;;;;;;;;;;22.40;54.10;;;;;;5056093;28;19905;-82
2022/05/31 11:22:12;;;;;;;;;;;22.40;56.30;;;;;;5057353;28;20281;-81
2022/05/31 11:24:49;;;;;;;;;;;22.50;53.50;;;;;;5057241;28;20364;-81
2022/05/31 11:27:27;;;;;;;;;;;22.50;55.10;;;;;;5057109;28;19995;-81
2022/05/31 11:30:16;;;;;;;;;;;22.60;54.70;;;;;;5058123;28;19904;-82
2022/05/31 11:32:52;;;;;;;;;;;22.80;55.20;;;;;;5059873;28;19911;-81
2022/05/31 11:35:30;;;;;;;;;;;23.00;53.40;;;;;;5057004;28;20353;-81
2022/05/31 11:37:58;;;;;;;;;;;23.20;54.50;;;;;;5056984;28;20254;-81
2022/05/31 11:40:45;;;;;;;;;;;23.20;53.60;;;;;;5056976;28;19908;-81
2022/05/31 11:43:18;;;;;;;;;;;23.30;55.00;;;;;;5057137;28;19908;-81
2022/05/31 11:45:46;;;;;;;;;;;23.40;56.60;;;;;;5055678;28;19904;-81
2022/05/31 11:48:27;;;;;;;;;;;23.50;57.10;;;;;;5056809;28;19905;-81
2022/05/31 11:50:52;;;;;;;;;;;23.50;54.70;;;;;;5055639;28;19904;-81
2022/05/31 11:53:24;;;;;;;;;;;23.50;57.00;;;;;;5056998;28;19904;-81
2022/05/31 11:56:12;;;;;;;;;;;23.50;55.40;;;;;;5055697;28;20291;-81
2022/05/31 11:58:41;;;;;;;;;;;23.70;55.80;;;;;;5051083;28;20272;-81
2022/05/31 12:01:24;;;;;;;;;;;23.90;54.70;;;;;;5056931;28;19915;-81
2022/05/31 12:04:01;;;;;;;;;;;23.90;55.00;;;;;;5055204;28;19904;-81
2022/05/31 12:06:38;;;;;;;;;;;24.10;54.10;;;;;;5056730;28;20003;-81
2022/05/31 12:09:13;;;;;;;;;;;24.20;52.70;;;;;;5056518;28;19904;-81
2022/05/31 12:11:59;;;;;;;;;;;24.20;54.50;;;;;;5056704;28;20014;-80
2022/05/31 12:14:26;;;;;;;;;;;24.30;53.70;;;;;;5056883;28;19912;-80
2022/05/31 12:16:51;;;;;;;;;;;24.30;54.70;;;;;;5056495;28;19951;-80
2022/05/31 12:19:38;;;;;;;;;;;24.30;52.30;;;;;;5055047;28;20312;-80
2022/05/31 12:22:09;;;;;;;;;;;24.20;51.00;;;;;;5056199;28;19904;-80
2022/05/31 12:24:39;;;;;;;;;;;24.20;52.30;;;;;;5056097;28;19905;-80
2022/05/31 12:27:07;;;;;;;;;;;24.30;54.00;;;;;;5056446;28;19912;-80
2022/05/31 12:29:44;;;;;;;;;;;24.20;52.00;;;;;;5056110;28;19905;-80
2022/05/31 12:32:26;;;;;;;;;;;24.40;55.00;;;;;;5056385;28;19992;-80
2022/05/31 12:34:52;;;;;;;;;;;24.40;53.40;;;;;;5055924;28;20376;-80
2022/05/31 12:37:17;;;;;;;;;;;24.40;52.50;;;;;;5054649;28;20003;-80
2022/05/31 12:39:45;;;;;;;;;;;24.40;52.80;;;;;;5056301;28;20011;-80
2022/05/31 12:42:13;;;;;;;;;;;24.60;54.30;;;;;;5055849;28;20391;-80
2022/05/31 12:44:39;;;;;;;;;;;24.80;51.50;;;;;;5054791;28;19995;-80
2022/05/31 12:47:28;;;;;;;;;;;24.90;52.90;;;;;;5055756;28;19915;-80
2022/05/31 12:50:08;;;;;;;;;;;25.00;51.70;;;;;;5080250;28;19905;-80
2022/05/31 12:55:21;;;;;;;;;;;25.20;46.90;;;;;;5055668;28;19989;-80
2022/05/31 13:00:46;;;;;;;;;;;25.20;49.30;;;;;;5055769;28;19911;-80
2022/05/31 13:03:30;;;;;;;;;;;25.20;49.70;;;;;;5055637;28;19912;-80
2022/05/31 13:05:57;;;;;;;;;;;25.30;50.80;;;;;;5053979;28;19908;-80
2022/05/31 13:08:43;;;;;;;;;;;25.50;48.50;;;;;;5055292;28;19954;-80
2022/05/31 13:19:38;;;;;;;;;;;25.80;47.60;;;;;;5055221;28;19939;-80
2022/05/31 13:22:14;;;;;;;;;;;25.70;48.70;;;;;;5053966;28;19912;-80
2022/05/31 13:25:02;;;;;;;;;;;25.80;51.30;;;;;;5055298;28;19940;-80
2022/05/31 13:27:30;;;;;;;0.90;0.40;;;26.00;47.60;;;;;;5054851;28;20015;-80
2022/05/31 13:30:26;;;;;;;1.48;0.50;;;25.90;47.40;;;;;;5054184;28;20135;-80
2022/05/31 13:32:52;;;;;;;1.83;0.60;;;25.60;46.90;;;;;;5053443;28;20058;-80
2022/05/31 13:35:29;;;;;;;0.88;0.50;;;25.40;48.10;;;;;;5054568;28;20088;-80
2022/05/31 13:38:12;;;;;;;1.95;0.60;;;25.20;48.40;;;;;;5054711;28;20029;-80
2022/05/31 13:40:49;;;;;;;1.92;0.60;;;25.10;47.60;;;;;;5054858;28;20024;-80
2022/05/31 13:43:37;;;;;;;1.70;0.68;;;25.10;48.80;;;;;;5054288;28;20025;-80
2022/05/31 13:46:29;;;;;;;3.22;0.90;;;25.10;48.40;;;;;;5054394;28;20021;-80
2022/05/31 13:49:02;;;;;;;1.92;0.70;;;25.10;49.90;;;;;;5049589;28;20033;-80
2022/05/31 13:51:32;;;;;;;1.20;0.50;;;25.20;50.30;;;;;;5054145;28;20017;-80
2022/05/31 13:54:12;;;;;;;1.85;0.80;;;25.10;49.00;;;;;;5051093;28;20029;-80
2022/05/31 13:56:38;;;;;;;2.40;0.60;;;25.00;49.10;;;;;;5054203;28;20061;-80
2022/05/31 13:59:04;;;;;;;1.52;0.60;;;24.90;48.20;;;;;;5054078;28;20063;-80
2022/05/31 14:01:30;;;;;;;1.95;0.65;;;24.90;48.40;;;;;;5051835;28;20047;-80
2022/05/31 14:04:06;;;;;;;2.35;0.80;;;24.80;48.30;;;;;;5053007;28;20020;-80